createdAt,value
2016-12-29T00:00:04.277Z,0
2016-12-29T00:01:13.289Z,0
2016-12-29T00:02:22.302Z,0
2016-12-29T00:03:31.294Z,0
2016-12-29T00:04:40.273Z,0
2016-12-29T00:05:49.277Z,0
2016-12-29T00:06:58.255Z,0
2016-12-29T00:08:07.230Z,0
2016-12-29T00:09:16.633Z,0
2016-12-29T00:10:25.619Z,0
2016-12-29T00:11:35.747Z,0
2016-12-29T00:12:44.746Z,0
2016-12-29T00:13:53.930Z,0
2016-12-29T00:15:03.298Z,0
2016-12-29T00:16:12.296Z,0
2016-12-29T00:17:21.426Z,0
2016-12-29T00:18:31.442Z,0
2016-12-29T00:19:40.456Z,0
2016-12-29T00:20:49.457Z,0
2016-12-29T00:21:58.458Z,0
2016-12-29T00:23:07.474Z,0
2016-12-29T00:24:16.546Z,0
2016-12-29T00:25:25.903Z,0
2016-12-29T00:26:34.874Z,0
2016-12-29T00:27:43.969Z,0
2016-12-29T00:28:53.079Z,0
2016-12-29T00:30:02.056Z,0
2016-12-29T00:31:11.044Z,0
2016-12-29T00:32:20.386Z,0
2016-12-29T00:33:29.382Z,0
2016-12-29T00:34:38.416Z,0
2016-12-29T00:35:47.869Z,0
2016-12-29T00:36:56.898Z,0
2016-12-29T00:38:06.278Z,0
2016-12-29T00:39:15.313Z,0
2016-12-29T00:40:24.300Z,0
2016-12-29T00:41:33.355Z,0
2016-12-29T00:42:42.384Z,0
2016-12-29T00:43:51.599Z,0
2016-12-29T00:45:00.649Z,0
2016-12-29T00:46:09.676Z,0
2016-12-29T00:47:18.697Z,0
2016-12-29T00:48:28.039Z,0
2016-12-29T00:49:37.028Z,0
2016-12-29T00:50:46.004Z,0
2016-12-29T00:51:55.092Z,0
2016-12-29T00:53:04.079Z,0
2016-12-29T00:54:13.071Z,0
2016-12-29T00:55:22.051Z,0
2016-12-29T00:56:31.035Z,0
2016-12-29T00:57:40.019Z,0
2016-12-29T00:58:48.992Z,0
2016-12-29T00:59:57.980Z,0
2016-12-29T01:01:06.973Z,0
2016-12-29T01:02:15.968Z,0
2016-12-29T01:03:24.960Z,0
2016-12-29T01:04:33.940Z,0
2016-12-29T01:05:42.932Z,0
2016-12-29T01:06:51.919Z,0
2016-12-29T01:08:00.900Z,0
2016-12-29T01:09:09.885Z,0
2016-12-29T01:10:18.882Z,0
2016-12-29T01:11:27.857Z,0
2016-12-29T01:12:36.841Z,0
2016-12-29T01:13:45.836Z,0
2016-12-29T01:14:54.819Z,0
2016-12-29T01:16:03.797Z,0
2016-12-29T01:17:12.779Z,0
2016-12-29T01:18:21.759Z,0
2016-12-29T01:19:30.742Z,0
2016-12-29T01:20:39.722Z,0
2016-12-29T01:21:48.687Z,0
2016-12-29T01:22:57.687Z,0
2016-12-29T01:24:06.674Z,0
2016-12-29T01:25:15.676Z,0
2016-12-29T01:26:24.671Z,0
2016-12-29T01:27:33.683Z,0
2016-12-29T01:28:42.677Z,0
2016-12-29T01:29:51.653Z,0
2016-12-29T01:31:00.637Z,0
2016-12-29T01:32:09.617Z,0
2016-12-29T01:33:18.607Z,0
2016-12-29T01:34:27.585Z,0
2016-12-29T01:35:36.571Z,0
2016-12-29T01:36:45.550Z,0
2016-12-29T01:37:54.543Z,0
2016-12-29T01:39:03.509Z,0
2016-12-29T01:40:12.481Z,0
2016-12-29T01:41:21.483Z,0
2016-12-29T01:42:30.459Z,0
2016-12-29T01:43:39.425Z,0
2016-12-29T01:44:48.404Z,0
2016-12-29T01:45:57.409Z,0
2016-12-29T01:47:06.392Z,0
2016-12-29T01:48:15.385Z,0
2016-12-29T01:49:24.497Z,0
2016-12-29T01:50:33.625Z,0
2016-12-29T01:51:42.607Z,0
2016-12-29T01:52:51.696Z,0
2016-12-29T01:54:00.704Z,0
2016-12-29T01:55:09.732Z,0
2016-12-29T01:56:18.766Z,0
2016-12-29T01:57:27.779Z,0
2016-12-29T01:58:36.779Z,0
2016-12-29T01:59:45.839Z,0
2016-12-29T02:00:54.823Z,0
2016-12-29T02:02:04.013Z,0
2016-12-29T02:03:13.069Z,0
2016-12-29T02:04:22.152Z,0
2016-12-29T02:05:31.134Z,0
2016-12-29T02:06:40.123Z,0
2016-12-29T02:07:49.143Z,0
2016-12-29T02:08:58.209Z,0
2016-12-29T02:10:08.033Z,0
2016-12-29T02:11:17.284Z,0
2016-12-29T02:12:26.669Z,0
2016-12-29T02:13:35.923Z,0
2016-12-29T02:14:46.084Z,0
2016-12-29T02:15:55.078Z,0
2016-12-29T02:17:04.074Z,0
2016-12-29T02:18:13.205Z,0
2016-12-29T02:19:22.174Z,0
2016-12-29T02:20:31.175Z,0
2016-12-29T02:21:40.254Z,0
2016-12-29T02:22:49.242Z,0
2016-12-29T02:23:58.326Z,0
2016-12-29T02:25:07.306Z,0
2016-12-29T02:26:16.360Z,0
2016-12-29T02:27:25.341Z,0
2016-12-29T02:28:34.496Z,0
2016-12-29T02:29:43.529Z,0
2016-12-29T02:30:52.626Z,0
2016-12-29T02:32:01.598Z,0
2016-12-29T02:33:10.573Z,0
2016-12-29T02:34:19.552Z,0
2016-12-29T02:35:28.580Z,0
2016-12-29T02:36:37.575Z,0
2016-12-29T02:37:46.558Z,0
2016-12-29T02:38:55.534Z,0
2016-12-29T02:40:04.683Z,0
2016-12-29T02:41:13.660Z,0
2016-12-29T02:42:22.649Z,0
2016-12-29T02:43:31.632Z,0
2016-12-29T02:44:40.679Z,0
2016-12-29T02:45:49.658Z,0
2016-12-29T02:46:58.629Z,0
2016-12-29T02:48:07.915Z,0
2016-12-29T02:49:16.899Z,0
2016-12-29T02:50:25.978Z,0
2016-12-29T02:51:34.957Z,0
2016-12-29T02:52:43.939Z,0
2016-12-29T02:53:52.921Z,0
2016-12-29T02:55:01.911Z,0
2016-12-29T02:56:10.886Z,0
2016-12-29T02:57:19.897Z,0
2016-12-29T02:58:28.866Z,0
2016-12-29T02:59:37.857Z,0
2016-12-29T03:00:46.896Z,0
2016-12-29T03:01:55.892Z,0
2016-12-29T03:03:04.868Z,0
2016-12-29T03:04:13.910Z,0
2016-12-29T03:05:23.136Z,0
2016-12-29T03:06:32.525Z,0
2016-12-29T03:07:41.609Z,0
2016-12-29T03:08:50.581Z,0
2016-12-29T03:09:59.563Z,0
2016-12-29T03:11:08.548Z,0
2016-12-29T03:12:17.526Z,0
2016-12-29T03:13:26.503Z,0
2016-12-29T03:14:35.484Z,0
2016-12-29T03:15:44.567Z,0
2016-12-29T03:16:53.543Z,0
2016-12-29T03:18:02.579Z,0
2016-12-29T03:19:11.561Z,0
2016-12-29T03:20:20.555Z,0
2016-12-29T03:21:29.532Z,0
2016-12-29T03:22:38.513Z,0
2016-12-29T03:23:47.483Z,0
2016-12-29T03:24:56.470Z,0
2016-12-29T03:26:05.452Z,0
2016-12-29T03:27:14.430Z,0
2016-12-29T03:28:23.433Z,0
2016-12-29T03:29:32.426Z,0
2016-12-29T03:30:41.404Z,0
2016-12-29T03:31:50.417Z,0
2016-12-29T03:32:59.400Z,0
2016-12-29T03:34:08.384Z,0
2016-12-29T03:35:18.405Z,0
2016-12-29T03:36:27.379Z,0
2016-12-29T03:37:36.347Z,0
2016-12-29T03:38:45.339Z,0
2016-12-29T03:39:54.553Z,0
2016-12-29T03:41:03.541Z,0
2016-12-29T03:42:12.529Z,0
2016-12-29T03:43:21.611Z,0
2016-12-29T03:44:30.602Z,0
2016-12-29T03:45:39.583Z,0
2016-12-29T03:46:48.547Z,0
2016-12-29T03:47:57.535Z,0
2016-12-29T03:49:06.520Z,0
2016-12-29T03:50:15.508Z,0
2016-12-29T03:51:24.535Z,0
2016-12-29T03:52:33.510Z,0
2016-12-29T03:53:42.479Z,0
2016-12-29T03:54:51.463Z,0
2016-12-29T03:56:00.441Z,0
2016-12-29T03:57:09.422Z,0
2016-12-29T03:58:18.392Z,0
2016-12-29T03:59:27.369Z,0
2016-12-29T04:00:36.769Z,0
2016-12-29T04:01:45.739Z,0
2016-12-29T04:02:54.724Z,0
2016-12-29T04:04:03.693Z,0
2016-12-29T04:05:12.733Z,0
2016-12-29T04:06:21.731Z,0
2016-12-29T04:07:30.714Z,0
2016-12-29T04:08:39.697Z,0
2016-12-29T04:09:48.662Z,0
2016-12-29T04:10:57.637Z,0
2016-12-29T04:12:06.617Z,0
2016-12-29T04:13:15.865Z,0
2016-12-29T04:14:24.888Z,0
2016-12-29T04:15:33.856Z,0
2016-12-29T04:16:42.823Z,0
2016-12-29T04:17:51.804Z,0
2016-12-29T04:19:00.781Z,0
2016-12-29T04:20:09.779Z,0
2016-12-29T04:21:18.763Z,0
2016-12-29T04:22:27.747Z,0
2016-12-29T04:23:36.711Z,0
2016-12-29T04:24:45.681Z,0
2016-12-29T04:25:54.656Z,0
2016-12-29T04:27:03.641Z,0
2016-12-29T04:28:12.634Z,0
2016-12-29T04:29:21.604Z,0
2016-12-29T04:30:30.583Z,0
2016-12-29T04:31:39.566Z,0
2016-12-29T04:32:48.544Z,0
2016-12-29T04:33:57.511Z,0
2016-12-29T04:35:06.502Z,0
2016-12-29T04:36:15.467Z,0
2016-12-29T04:37:24.448Z,0
2016-12-29T04:38:33.433Z,0
2016-12-29T04:39:42.418Z,0
2016-12-29T04:40:51.398Z,0
2016-12-29T04:42:00.398Z,0
2016-12-29T04:43:09.370Z,0
2016-12-29T04:44:18.349Z,0
2016-12-29T04:45:27.318Z,0
2016-12-29T04:46:36.302Z,0
2016-12-29T04:47:45.323Z,0
2016-12-29T04:48:54.307Z,0
2016-12-29T04:50:03.283Z,0
2016-12-29T04:51:12.262Z,0
2016-12-29T04:52:21.242Z,0
2016-12-29T04:53:30.240Z,0
2016-12-29T04:54:39.247Z,0
2016-12-29T04:55:48.245Z,0
2016-12-29T04:56:57.228Z,0
2016-12-29T04:58:06.226Z,0
2016-12-29T04:59:15.194Z,0
2016-12-29T05:00:24.164Z,0
2016-12-29T05:01:33.148Z,0
2016-12-29T05:02:42.125Z,0
2016-12-29T05:03:51.094Z,0
2016-12-29T05:05:00.066Z,0
2016-12-29T05:06:09.049Z,0
2016-12-29T05:07:18.044Z,0
2016-12-29T05:08:27.020Z,0
2016-12-29T05:09:35.998Z,0
2016-12-29T05:10:45.016Z,0
2016-12-29T05:11:54.029Z,0
2016-12-29T05:13:03.001Z,0
2016-12-29T05:14:12.046Z,0
2016-12-29T05:15:21.015Z,0
2016-12-29T05:16:29.984Z,0
2016-12-29T05:17:39.008Z,0
2016-12-29T05:18:48.014Z,0
2016-12-29T05:19:56.982Z,0
2016-12-29T05:21:05.955Z,0
2016-12-29T05:22:14.938Z,0
2016-12-29T05:23:23.924Z,0
2016-12-29T05:24:32.898Z,0
2016-12-29T05:25:41.871Z,0
2016-12-29T05:26:50.852Z,0
2016-12-29T05:27:59.820Z,0
2016-12-29T05:29:08.823Z,0
2016-12-29T05:30:17.896Z,0
2016-12-29T05:31:26.875Z,0
2016-12-29T05:32:35.844Z,0
2016-12-29T05:33:44.876Z,0
2016-12-29T05:34:53.866Z,0
2016-12-29T05:36:02.838Z,0
2016-12-29T05:37:11.838Z,0
2016-12-29T05:38:21.206Z,0
2016-12-29T05:39:30.194Z,0
2016-12-29T05:40:39.173Z,0
2016-12-29T05:41:48.151Z,0
2016-12-29T05:42:57.122Z,0
2016-12-29T05:44:06.104Z,0
2016-12-29T05:45:15.143Z,0
2016-12-29T05:46:24.174Z,0
2016-12-29T05:47:33.149Z,0
2016-12-29T05:48:42.119Z,0
2016-12-29T05:49:51.098Z,0
2016-12-29T05:51:00.080Z,0
2016-12-29T05:52:09.078Z,0
2016-12-29T05:53:18.055Z,0
2016-12-29T05:54:27.032Z,0
2016-12-29T05:55:35.999Z,0
2016-12-29T05:56:44.995Z,0
2016-12-29T05:57:53.982Z,0
2016-12-29T05:59:02.951Z,0
2016-12-29T06:00:11.921Z,0
2016-12-29T06:01:20.900Z,0
2016-12-29T06:02:29.868Z,0
2016-12-29T06:03:38.856Z,0
2016-12-29T06:04:47.846Z,0
2016-12-29T06:05:56.915Z,0
2016-12-29T06:07:05.881Z,0
2016-12-29T06:08:14.873Z,0
2016-12-29T06:09:23.849Z,0
2016-12-29T06:10:32.841Z,0
2016-12-29T06:11:41.830Z,0
2016-12-29T06:12:50.801Z,0
2016-12-29T06:13:59.790Z,0
2016-12-29T06:15:08.828Z,0
2016-12-29T06:16:17.795Z,0
2016-12-29T06:17:26.793Z,0
2016-12-29T06:18:35.761Z,0
2016-12-29T06:19:44.750Z,0
2016-12-29T06:20:53.728Z,0
2016-12-29T06:22:02.709Z,0
2016-12-29T06:23:11.709Z,0
2016-12-29T06:24:20.694Z,0
2016-12-29T06:25:29.686Z,0
2016-12-29T06:26:38.675Z,0
2016-12-29T06:27:47.635Z,0
2016-12-29T06:28:56.623Z,0
2016-12-29T06:30:05.605Z,0
2016-12-29T06:31:14.578Z,0
2016-12-29T06:32:23.549Z,0
2016-12-29T06:33:32.522Z,0
2016-12-29T06:34:41.505Z,0
2016-12-29T06:35:50.474Z,0
2016-12-29T06:36:59.451Z,0
2016-12-29T06:38:08.476Z,0
2016-12-29T06:39:17.455Z,0
2016-12-29T06:40:26.452Z,0
2016-12-29T06:41:35.562Z,0
2016-12-29T06:42:44.602Z,0
2016-12-29T06:43:53.572Z,0
2016-12-29T06:45:02.544Z,0
2016-12-29T06:46:11.529Z,0
2016-12-29T06:47:20.513Z,0
2016-12-29T06:48:29.489Z,0
2016-12-29T06:49:38.465Z,0
2016-12-29T06:50:47.470Z,0
2016-12-29T06:51:56.454Z,0
2016-12-29T06:53:05.478Z,0
2016-12-29T06:54:14.454Z,0
2016-12-29T06:55:23.430Z,4
2016-12-29T06:56:32.436Z,4
2016-12-29T06:57:41.411Z,0
2016-12-29T06:58:50.396Z,0
2016-12-29T06:59:59.400Z,4
2016-12-29T07:01:08.379Z,4
2016-12-29T07:02:17.365Z,4
2016-12-29T07:03:26.351Z,4
2016-12-29T07:04:35.339Z,4
2016-12-29T07:05:44.312Z,4
2016-12-29T07:06:53.276Z,4
2016-12-29T07:08:02.266Z,8
2016-12-29T07:09:11.240Z,8
2016-12-29T07:10:20.230Z,4
2016-12-29T07:11:29.209Z,8
2016-12-29T07:12:38.258Z,8
2016-12-29T07:13:47.224Z,8
2016-12-29T07:14:56.227Z,12
2016-12-29T07:16:05.189Z,8
2016-12-29T07:17:14.183Z,12
2016-12-29T07:18:23.171Z,12
2016-12-29T07:19:32.167Z,16
2016-12-29T07:20:41.140Z,12
2016-12-29T07:21:50.138Z,16
2016-12-29T07:22:59.129Z,16
2016-12-29T07:24:08.111Z,20
2016-12-29T07:25:17.082Z,24
2016-12-29T07:26:26.048Z,24
2016-12-29T07:27:35.028Z,28
2016-12-29T07:28:44.019Z,24
2016-12-29T07:29:53.009Z,24
2016-12-29T07:31:01.992Z,28
2016-12-29T07:32:10.964Z,32
2016-12-29T07:33:19.934Z,32
2016-12-29T07:34:28.924Z,36
2016-12-29T07:35:37.909Z,36
2016-12-29T07:36:46.918Z,40
2016-12-29T07:37:55.910Z,40
2016-12-29T07:39:04.907Z,40
2016-12-29T07:40:13.903Z,40
2016-12-29T07:41:22.882Z,40
2016-12-29T07:42:31.853Z,44
2016-12-29T07:43:40.849Z,48
2016-12-29T07:44:49.837Z,48
2016-12-29T07:45:58.802Z,52
2016-12-29T07:47:07.777Z,52
2016-12-29T07:48:16.758Z,52
2016-12-29T07:49:25.729Z,56
2016-12-29T07:50:34.693Z,60
2016-12-29T07:51:43.669Z,64
2016-12-29T07:52:52.641Z,68
2016-12-29T07:54:01.620Z,72
2016-12-29T07:55:10.610Z,72
2016-12-29T07:56:19.573Z,76
2016-12-29T07:57:28.547Z,80
2016-12-29T07:58:37.529Z,80
2016-12-29T07:59:46.499Z,84
2016-12-29T08:00:55.479Z,84
2016-12-29T08:02:04.452Z,88
2016-12-29T08:03:13.526Z,88
2016-12-29T08:04:22.499Z,92
2016-12-29T08:05:31.503Z,96
2016-12-29T08:06:40.478Z,104
2016-12-29T08:07:49.469Z,104
2016-12-29T08:08:58.438Z,108
2016-12-29T08:10:07.412Z,108
2016-12-29T08:11:16.384Z,108
2016-12-29T08:12:25.993Z,112
2016-12-29T08:13:34.978Z,116
2016-12-29T08:14:43.947Z,120
2016-12-29T08:15:52.939Z,124
2016-12-29T08:17:01.921Z,124
2016-12-29T08:18:10.895Z,124
2016-12-29T08:19:19.884Z,128
2016-12-29T08:20:28.878Z,132
2016-12-29T08:21:37.873Z,136
2016-12-29T08:22:46.866Z,132
2016-12-29T08:23:55.838Z,140
2016-12-29T08:25:04.821Z,148
2016-12-29T08:26:13.806Z,152
2016-12-29T08:27:22.796Z,168
2016-12-29T08:28:31.869Z,172
2016-12-29T08:29:40.853Z,176
2016-12-29T08:30:49.820Z,188
2016-12-29T08:31:58.803Z,196
2016-12-29T08:33:07.795Z,196
2016-12-29T08:34:16.769Z,208
2016-12-29T08:35:25.760Z,216
2016-12-29T08:36:34.743Z,228
2016-12-29T08:37:43.744Z,244
2016-12-29T08:38:52.774Z,260
2016-12-29T08:40:01.760Z,272
2016-12-29T08:41:10.760Z,280
2016-12-29T08:42:19.736Z,284
2016-12-29T08:43:28.714Z,288
2016-12-29T08:44:37.761Z,288
2016-12-29T08:45:46.740Z,292
2016-12-29T08:46:55.724Z,300
2016-12-29T08:48:04.701Z,300
2016-12-29T08:49:13.679Z,308
2016-12-29T08:50:22.652Z,312
2016-12-29T08:51:31.629Z,300
2016-12-29T08:52:40.598Z,292
2016-12-29T08:53:49.570Z,288
2016-12-29T08:54:58.558Z,292
2016-12-29T08:56:07.543Z,296
2016-12-29T08:57:16.523Z,304
2016-12-29T08:58:25.515Z,316
2016-12-29T08:59:34.494Z,312
2016-12-29T09:00:43.469Z,308
2016-12-29T09:01:52.543Z,312
2016-12-29T09:03:01.525Z,316
2016-12-29T09:04:10.529Z,328
2016-12-29T09:05:19.508Z,328
2016-12-29T09:06:28.475Z,344
2016-12-29T09:07:37.463Z,356
2016-12-29T09:08:46.465Z,360
2016-12-29T09:09:55.443Z,368
2016-12-29T09:11:04.408Z,384
2016-12-29T09:12:13.382Z,384
2016-12-29T09:13:22.379Z,396
2016-12-29T09:14:31.535Z,408
2016-12-29T09:15:40.505Z,400
2016-12-29T09:16:49.481Z,388
2016-12-29T09:17:58.454Z,388
2016-12-29T09:19:07.425Z,388
2016-12-29T09:20:16.402Z,392
2016-12-29T09:21:25.370Z,400
2016-12-29T09:22:34.356Z,412
2016-12-29T09:23:43.332Z,412
2016-12-29T09:24:52.312Z,420
2016-12-29T09:26:01.285Z,416
2016-12-29T09:27:10.269Z,424
2016-12-29T09:28:19.244Z,432
2016-12-29T09:29:28.217Z,432
2016-12-29T09:30:37.198Z,448
2016-12-29T09:31:46.176Z,448
2016-12-29T09:32:55.160Z,388
2016-12-29T09:34:04.150Z,460
2016-12-29T09:35:13.217Z,472
2016-12-29T09:36:22.211Z,464
2016-12-29T09:37:31.173Z,464
2016-12-29T09:38:40.154Z,476
2016-12-29T09:39:49.133Z,480
2016-12-29T09:40:58.109Z,484
2016-12-29T09:42:07.156Z,488
2016-12-29T09:43:16.248Z,500
2016-12-29T09:44:25.214Z,508
2016-12-29T09:45:34.192Z,512
2016-12-29T09:46:43.208Z,512
2016-12-29T09:47:52.233Z,512
2016-12-29T09:49:01.217Z,524
2016-12-29T09:50:10.192Z,524
2016-12-29T09:51:19.162Z,516
2016-12-29T09:52:28.150Z,508
2016-12-29T09:53:38.355Z,508
2016-12-29T09:54:47.367Z,520
2016-12-29T09:55:56.357Z,524
2016-12-29T09:57:06.285Z,528
2016-12-29T09:58:15.285Z,532
2016-12-29T09:59:53.971Z,540
2016-12-29T10:01:02.952Z,556
2016-12-29T10:02:11.947Z,556
2016-12-29T10:03:20.991Z,556
2016-12-29T10:04:29.981Z,544
2016-12-29T10:05:38.961Z,544
2016-12-29T10:06:47.979Z,560
2016-12-29T10:07:56.960Z,564
2016-12-29T10:09:06.466Z,544
2016-12-29T10:10:15.657Z,564
2016-12-29T10:11:24.663Z,572
2016-12-29T10:12:33.921Z,588
2016-12-29T10:13:43.087Z,592
2016-12-29T10:14:52.581Z,588
2016-12-29T10:16:02.254Z,580
2016-12-29T10:17:11.233Z,540
2016-12-29T10:18:20.226Z,596
2016-12-29T10:19:29.215Z,596
2016-12-29T10:20:38.196Z,604
2016-12-29T10:21:48.355Z,592
2016-12-29T10:22:58.794Z,580
2016-12-29T10:24:07.849Z,592
2016-12-29T10:25:16.828Z,600
2016-12-29T10:26:25.817Z,596
2016-12-29T10:27:34.787Z,604
2016-12-29T10:28:43.764Z,620
2016-12-29T10:29:52.758Z,624
2016-12-29T10:31:01.743Z,620
2016-12-29T10:32:10.728Z,608
2016-12-29T10:33:19.702Z,612
2016-12-29T10:34:28.679Z,632
2016-12-29T10:35:37.663Z,636
2016-12-29T10:36:48.435Z,620
2016-12-29T10:37:57.841Z,624
2016-12-29T10:39:06.819Z,636
2016-12-29T10:40:15.801Z,568
2016-12-29T10:41:24.790Z,416
2016-12-29T10:42:33.773Z,624
2016-12-29T10:43:42.759Z,624
2016-12-29T10:44:52.253Z,600
2016-12-29T10:46:01.539Z,632
2016-12-29T10:47:10.520Z,636
2016-12-29T10:48:19.501Z,632
2016-12-29T10:49:28.473Z,636
2016-12-29T10:50:37.454Z,652
2016-12-29T10:51:46.423Z,656
2016-12-29T10:52:55.435Z,648
2016-12-29T10:54:04.408Z,656
2016-12-29T10:55:13.388Z,668
2016-12-29T10:56:22.359Z,664
2016-12-29T10:57:31.325Z,668
2016-12-29T10:58:40.301Z,664
2016-12-29T10:59:49.285Z,656
2016-12-29T11:00:58.272Z,652
2016-12-29T11:02:07.236Z,656
2016-12-29T11:03:16.209Z,624
2016-12-29T11:04:25.186Z,644
2016-12-29T11:05:34.176Z,636
2016-12-29T11:06:43.174Z,624
2016-12-29T11:07:52.144Z,644
2016-12-29T11:09:01.119Z,640
2016-12-29T11:10:11.828Z,624
2016-12-29T11:11:20.989Z,620
2016-12-29T11:12:29.975Z,624
2016-12-29T11:13:39.186Z,620
2016-12-29T11:14:48.158Z,632
2016-12-29T11:15:57.582Z,636
2016-12-29T11:17:07.093Z,664
2016-12-29T11:18:16.066Z,672
2016-12-29T11:19:25.799Z,660
2016-12-29T11:20:35.390Z,652
2016-12-29T11:21:44.568Z,632
2016-12-29T11:22:53.615Z,648
2016-12-29T11:24:03.243Z,664
2016-12-29T11:25:12.218Z,628
2016-12-29T11:26:21.198Z,620
2016-12-29T11:27:30.206Z,656
2016-12-29T11:28:39.194Z,652
2016-12-29T11:29:48.182Z,660
2016-12-29T11:30:57.148Z,664
2016-12-29T11:32:06.125Z,640
2016-12-29T11:33:15.095Z,648
2016-12-29T11:34:24.089Z,636
2016-12-29T11:35:33.067Z,596
2016-12-29T11:36:42.046Z,592
2016-12-29T11:37:51.027Z,584
2016-12-29T11:39:00.003Z,564
2016-12-29T11:40:09.000Z,576
2016-12-29T11:41:18.000Z,616
2016-12-29T11:42:26.985Z,640
2016-12-29T11:43:35.960Z,604
2016-12-29T11:44:44.935Z,620
2016-12-29T11:45:53.918Z,572
2016-12-29T11:47:02.902Z,548
2016-12-29T11:48:11.894Z,580
2016-12-29T11:49:20.868Z,552
2016-12-29T11:50:29.851Z,548
2016-12-29T11:51:38.831Z,508
2016-12-29T11:52:47.814Z,552
2016-12-29T11:53:56.824Z,620
2016-12-29T11:55:05.840Z,540
2016-12-29T11:56:15.645Z,528
2016-12-29T11:57:24.654Z,524
2016-12-29T11:58:33.639Z,496
2016-12-29T11:59:42.624Z,472
2016-12-29T12:00:51.825Z,444
2016-12-29T12:02:00.952Z,436
2016-12-29T12:03:09.954Z,408
2016-12-29T12:04:18.933Z,396
2016-12-29T12:05:27.898Z,408
2016-12-29T12:06:36.871Z,424
2016-12-29T12:07:45.840Z,452
2016-12-29T12:08:54.835Z,448
2016-12-29T12:10:03.817Z,448
2016-12-29T12:11:12.809Z,464
2016-12-29T12:12:21.774Z,472
2016-12-29T12:13:30.812Z,472
2016-12-29T12:14:39.799Z,484
2016-12-29T12:15:48.774Z,444
2016-12-29T12:16:57.746Z,420
2016-12-29T12:18:06.711Z,384
2016-12-29T12:19:15.687Z,372
2016-12-29T12:20:24.664Z,348
2016-12-29T12:21:33.637Z,324
2016-12-29T12:22:42.620Z,308
2016-12-29T12:23:51.615Z,284
2016-12-29T12:25:01.012Z,276
2016-12-29T12:26:09.993Z,272
2016-12-29T12:27:18.966Z,268
2016-12-29T12:28:27.972Z,272
2016-12-29T12:29:36.962Z,280
2016-12-29T12:30:45.932Z,284
2016-12-29T12:31:54.906Z,288
2016-12-29T12:33:03.888Z,296
2016-12-29T12:34:12.867Z,292
2016-12-29T12:35:21.846Z,284
2016-12-29T12:36:30.833Z,288
2016-12-29T12:37:39.817Z,292
2016-12-29T12:38:48.823Z,280
2016-12-29T12:39:57.813Z,276
2016-12-29T12:41:06.792Z,284
2016-12-29T12:42:15.781Z,332
2016-12-29T12:43:24.770Z,376
2016-12-29T12:44:33.741Z,388
2016-12-29T12:45:42.716Z,388
2016-12-29T12:46:51.688Z,372
2016-12-29T12:48:00.668Z,376
2016-12-29T12:49:09.651Z,368
2016-12-29T12:50:18.685Z,360
2016-12-29T12:51:27.663Z,352
2016-12-29T12:52:36.644Z,344
2016-12-29T12:53:46.452Z,348
2016-12-29T12:54:55.452Z,368
2016-12-29T12:56:04.468Z,380
2016-12-29T12:57:13.465Z,412
2016-12-29T12:58:22.438Z,444
2016-12-29T12:59:31.435Z,472
2016-12-29T13:00:40.422Z,680
2016-12-29T13:01:49.671Z,612
2016-12-29T13:02:58.887Z,452
2016-12-29T13:04:07.897Z,408
2016-12-29T13:05:16.919Z,396
2016-12-29T13:06:25.939Z,384
2016-12-29T13:07:35.146Z,380
2016-12-29T13:08:44.311Z,384
2016-12-29T13:09:53.313Z,392
2016-12-29T13:11:02.436Z,400
2016-12-29T13:12:12.307Z,388
2016-12-29T13:13:21.339Z,384
2016-12-29T13:14:30.314Z,380
2016-12-29T13:15:39.293Z,388
2016-12-29T13:16:48.280Z,372
2016-12-29T13:17:57.354Z,372
2016-12-29T13:19:06.378Z,368
2016-12-29T13:20:15.361Z,368
2016-12-29T13:21:24.348Z,368
2016-12-29T13:22:33.349Z,388
2016-12-29T13:23:42.340Z,368
2016-12-29T13:24:51.320Z,356
2016-12-29T13:26:01.166Z,352
2016-12-29T13:27:10.523Z,348
2016-12-29T13:28:19.513Z,348
2016-12-29T13:29:29.344Z,324
2016-12-29T13:30:38.730Z,320
2016-12-29T13:31:47.739Z,312
2016-12-29T13:32:56.758Z,304
2016-12-29T13:34:05.765Z,300
2016-12-29T13:35:14.747Z,300
2016-12-29T13:36:23.748Z,296
2016-12-29T13:37:32.728Z,292
2016-12-29T13:38:41.736Z,292
2016-12-29T13:39:50.730Z,284
2016-12-29T13:40:59.742Z,288
2016-12-29T13:42:08.721Z,288
2016-12-29T13:43:17.725Z,284
2016-12-29T13:44:26.753Z,284
2016-12-29T13:45:35.758Z,288
2016-12-29T13:46:44.733Z,296
2016-12-29T13:47:53.736Z,312
2016-12-29T13:49:03.128Z,328
2016-12-29T13:50:12.186Z,320
2016-12-29T13:51:21.165Z,324
2016-12-29T13:52:30.155Z,332
2016-12-29T13:53:39.125Z,328
2016-12-29T13:54:48.124Z,320
2016-12-29T13:55:57.106Z,328
2016-12-29T13:57:06.093Z,328
2016-12-29T13:58:15.099Z,312
2016-12-29T13:59:24.078Z,296
2016-12-29T14:00:33.060Z,292
2016-12-29T14:01:42.058Z,316
2016-12-29T14:02:51.044Z,276
2016-12-29T14:04:00.075Z,256
2016-12-29T14:05:09.124Z,276
2016-12-29T14:06:18.193Z,276
2016-12-29T14:07:27.869Z,256
2016-12-29T14:08:37.267Z,244
2016-12-29T14:09:46.810Z,244
2016-12-29T14:10:55.804Z,252
2016-12-29T14:12:04.798Z,228
2016-12-29T14:13:14.155Z,236
2016-12-29T14:14:23.314Z,232
2016-12-29T14:15:32.289Z,208
2016-12-29T14:16:41.292Z,188
2016-12-29T14:17:50.283Z,188
2016-12-29T14:18:59.560Z,180
2016-12-29T14:20:08.548Z,176
2016-12-29T14:21:17.522Z,184
2016-12-29T14:22:26.870Z,168
2016-12-29T14:23:35.866Z,176
2016-12-29T14:24:44.853Z,168
2016-12-29T14:25:53.868Z,176
2016-12-29T14:27:02.893Z,156
2016-12-29T14:28:12.283Z,148
2016-12-29T14:29:21.285Z,148
2016-12-29T14:30:30.270Z,148
2016-12-29T14:31:39.265Z,136
2016-12-29T14:32:48.271Z,128
2016-12-29T14:33:57.920Z,120
2016-12-29T14:35:07.384Z,108
2016-12-29T14:36:16.370Z,116
2016-12-29T14:37:25.358Z,104
2016-12-29T14:38:34.345Z,104
2016-12-29T14:39:43.603Z,100
2016-12-29T14:40:52.605Z,92
2016-12-29T14:42:01.599Z,92
2016-12-29T14:43:10.577Z,80
2016-12-29T14:44:19.569Z,80
2016-12-29T14:45:28.575Z,68
2016-12-29T14:46:37.571Z,68
2016-12-29T14:47:46.603Z,60
2016-12-29T14:48:55.641Z,64
2016-12-29T14:50:05.377Z,60
2016-12-29T14:51:14.369Z,56
2016-12-29T14:52:23.370Z,52
2016-12-29T14:53:32.396Z,48
2016-12-29T14:54:41.398Z,52
2016-12-29T14:55:50.372Z,44
2016-12-29T14:56:59.356Z,44
2016-12-29T14:58:08.396Z,44
2016-12-29T14:59:17.399Z,40
2016-12-29T15:00:26.386Z,36
2016-12-29T15:01:35.416Z,32
2016-12-29T15:02:44.403Z,32
2016-12-29T15:03:53.444Z,28
2016-12-29T15:05:02.427Z,24
2016-12-29T15:06:11.426Z,24
2016-12-29T15:07:20.421Z,24
2016-12-29T15:08:29.416Z,20
2016-12-29T15:09:38.398Z,20
2016-12-29T15:10:47.374Z,16
2016-12-29T15:11:56.394Z,16
2016-12-29T15:13:05.384Z,12
2016-12-29T15:14:15.569Z,12
2016-12-29T15:15:24.835Z,8
2016-12-29T15:16:33.838Z,12
2016-12-29T15:17:42.834Z,8
2016-12-29T15:18:51.847Z,4
2016-12-29T15:20:00.839Z,8
2016-12-29T15:21:09.836Z,8
2016-12-29T15:22:18.817Z,4
2016-12-29T15:23:27.807Z,4
2016-12-29T15:24:36.814Z,4
2016-12-29T15:25:45.802Z,4
2016-12-29T15:26:54.786Z,4
2016-12-29T15:28:03.777Z,4
2016-12-29T15:29:12.792Z,0
2016-12-29T15:30:21.785Z,0
2016-12-29T15:31:30.767Z,4
2016-12-29T15:32:39.760Z,0
2016-12-29T15:33:48.735Z,0
2016-12-29T15:34:57.725Z,0
2016-12-29T15:36:06.722Z,0
2016-12-29T15:37:15.737Z,0
2016-12-29T15:38:24.781Z,0
2016-12-29T15:39:33.766Z,0
2016-12-29T15:40:42.761Z,0
2016-12-29T15:41:51.763Z,0
2016-12-29T15:43:00.757Z,0
2016-12-29T15:44:09.742Z,0
2016-12-29T15:45:18.746Z,0
2016-12-29T15:46:27.741Z,0
2016-12-29T15:47:36.749Z,0
2016-12-29T15:48:45.768Z,0
2016-12-29T15:49:54.763Z,0
2016-12-29T15:51:03.760Z,0
2016-12-29T15:52:12.755Z,0
2016-12-29T15:53:21.746Z,0
2016-12-29T15:54:30.749Z,0
2016-12-29T15:55:39.751Z,0
2016-12-29T15:56:48.753Z,0
2016-12-29T15:57:57.741Z,0
2016-12-29T15:59:06.737Z,0
2016-12-29T16:00:15.736Z,0
2016-12-29T16:01:24.720Z,0
2016-12-29T16:02:33.711Z,0
2016-12-29T16:03:42.707Z,0
2016-12-29T16:04:51.689Z,0
2016-12-29T16:06:00.688Z,0
2016-12-29T16:07:09.683Z,0
2016-12-29T16:08:18.678Z,0
2016-12-29T16:09:27.693Z,0
2016-12-29T16:10:36.692Z,0
2016-12-29T16:11:45.693Z,0
2016-12-29T16:12:54.702Z,0
2016-12-29T16:14:03.697Z,0
2016-12-29T16:15:12.682Z,0
2016-12-29T16:16:21.679Z,0
2016-12-29T16:17:30.694Z,0
2016-12-29T16:18:39.686Z,0
2016-12-29T16:19:48.653Z,0
2016-12-29T16:20:57.639Z,0
2016-12-29T16:22:06.623Z,0
2016-12-29T16:23:15.649Z,0
2016-12-29T16:24:24.693Z,0
2016-12-29T16:25:33.664Z,0
2016-12-29T16:26:42.646Z,0
2016-12-29T16:27:51.634Z,0
2016-12-29T16:29:00.637Z,0